createdAt,value
2017-10-14T00:02:20.946Z,70.40
2017-10-14T00:04:48.142Z,71.40
2017-10-14T00:07:14.561Z,71.40
2017-10-14T00:09:40.974Z,71.00
2017-10-14T00:12:07.434Z,71.30
2017-10-14T00:14:33.881Z,70.90
2017-10-14T00:17:00.292Z,70.40
2017-10-14T00:19:26.674Z,69.70
2017-10-14T00:21:53.890Z,69.40
2017-10-14T00:24:20.345Z,69.30
2017-10-14T00:26:46.750Z,70.10
2017-10-14T00:29:13.182Z,70.50
2017-10-14T00:31:39.586Z,71.10
2017-10-14T00:34:06.003Z,71.20
2017-10-14T00:36:33.195Z,71.10
2017-10-14T00:38:59.627Z,71.10
2017-10-14T00:41:26.092Z,70.80
2017-10-14T00:43:52.519Z,71.00
2017-10-14T00:46:18.959Z,70.50
2017-10-14T00:48:45.387Z,69.60
2017-10-14T00:51:11.809Z,69.70
2017-10-14T00:53:38.233Z,69.50
2017-10-14T00:56:04.708Z,69.10
2017-10-14T00:58:31.199Z,69.20
2017-10-14T01:00:57.661Z,69.50
2017-10-14T01:03:24.099Z,69.60
2017-10-14T01:05:50.487Z,69.60
2017-10-14T01:08:16.914Z,69.30
2017-10-14T01:10:43.380Z,69.20
2017-10-14T01:13:09.796Z,69.20
2017-10-14T01:15:36.234Z,69.20
2017-10-14T01:18:02.661Z,69.80
2017-10-14T01:20:29.144Z,69.50
2017-10-14T01:22:56.375Z,69.20
2017-10-14T01:25:22.805Z,69.10
2017-10-14T01:27:49.232Z,69.30
2017-10-14T01:30:15.685Z,68.00
2017-10-14T01:32:42.149Z,68.40
2017-10-14T01:35:08.634Z,68.00
2017-10-14T01:37:35.087Z,68.10
2017-10-14T01:40:01.561Z,68.40
2017-10-14T01:42:28.242Z,69.00
2017-10-14T01:44:54.702Z,68.00
2017-10-14T01:47:21.917Z,69.20
2017-10-14T01:49:48.351Z,69.10
2017-10-14T01:52:14.797Z,69.80
2017-10-14T01:54:41.252Z,68.80
2017-10-14T01:57:07.821Z,68.30
2017-10-14T01:59:34.312Z,68.50
2017-10-14T02:02:01.493Z,68.50
2017-10-14T02:04:27.902Z,68.50
2017-10-14T02:06:55.086Z,69.20
2017-10-14T02:09:21.569Z,69.20
2017-10-14T02:11:48.041Z,69.10
2017-10-14T02:14:14.436Z,70.40
2017-10-14T02:16:40.844Z,69.80
2017-10-14T02:19:07.250Z,69.40
2017-10-14T02:21:33.676Z,69.70
2017-10-14T02:24:00.092Z,69.40
2017-10-14T02:26:27.220Z,70.10
2017-10-14T02:28:53.608Z,70.10
2017-10-14T02:31:20.023Z,70.30
2017-10-14T02:33:46.481Z,70.10
2017-10-14T02:36:12.872Z,70.20
2017-10-14T02:38:40.020Z,70.00
2017-10-14T02:41:07.133Z,70.20
2017-10-14T02:43:33.524Z,70.10
2017-10-14T02:45:59.922Z,70.10
2017-10-14T02:48:26.347Z,70.30
2017-10-14T02:50:52.727Z,70.00
2017-10-14T02:53:19.121Z,70.00
2017-10-14T02:55:46.277Z,70.90
2017-10-14T02:58:13.450Z,70.50
2017-10-14T03:00:39.828Z,70.40
2017-10-14T03:03:06.224Z,70.20
2017-10-14T03:05:32.649Z,70.90
2017-10-14T03:07:59.076Z,70.40
2017-10-14T03:10:25.510Z,70.00
2017-10-14T03:12:51.913Z,69.20
2017-10-14T03:15:18.342Z,68.90
2017-10-14T03:17:44.745Z,68.90
2017-10-14T03:20:11.205Z,69.30
2017-10-14T03:22:37.610Z,69.30
2017-10-14T03:25:04.069Z,70.40
2017-10-14T03:27:30.677Z,70.60
2017-10-14T03:29:57.108Z,70.40
2017-10-14T03:32:23.604Z,68.30
2017-10-14T03:34:50.017Z,66.00
2017-10-14T03:37:16.436Z,65.60
2017-10-14T03:39:43.589Z,67.70
2017-10-14T03:42:10.029Z,67.70
2017-10-14T03:44:37.932Z,68.90
2017-10-14T03:47:04.321Z,68.80
2017-10-14T03:49:32.200Z,68.80
2017-10-14T03:51:59.360Z,68.00
2017-10-14T03:54:26.526Z,68.20
2017-10-14T03:56:52.956Z,68.20
2017-10-14T03:59:19.391Z,69.30
2017-10-14T04:01:46.042Z,69.20
2017-10-14T04:04:12.436Z,69.00
2017-10-14T04:06:39.646Z,69.30
2017-10-14T04:09:06.059Z,69.20
2017-10-14T04:11:32.508Z,69.60
2017-10-14T04:13:58.977Z,69.90
2017-10-14T04:16:26.153Z,71.00
2017-10-14T04:18:53.288Z,70.80
2017-10-14T04:21:19.671Z,70.80
2017-10-14T04:23:46.100Z,70.40
2017-10-14T04:26:12.548Z,70.70
2017-10-14T04:28:38.967Z,70.60
2017-10-14T04:31:05.389Z,69.60
2017-10-14T04:33:31.844Z,69.40
2017-10-14T04:35:58.252Z,68.90
2017-10-14T04:38:24.674Z,71.50
2017-10-14T04:40:51.068Z,71.10
2017-10-14T04:43:17.465Z,70.00
2017-10-14T04:45:43.871Z,70.50
2017-10-14T04:48:10.313Z,70.10
2017-10-14T04:50:36.701Z,69.70
2017-10-14T04:53:03.856Z,71.60
2017-10-14T04:55:30.251Z,70.90
2017-10-14T04:57:56.653Z,69.80
2017-10-14T05:00:23.036Z,70.20
2017-10-14T05:02:49.459Z,70.40
2017-10-14T05:05:15.869Z,70.90
2017-10-14T05:07:42.275Z,71.00
2017-10-14T05:10:08.660Z,71.20
2017-10-14T05:12:35.082Z,71.60
2017-10-14T05:15:02.169Z,71.70
2017-10-14T05:17:29.323Z,71.80
2017-10-14T05:19:56.469Z,70.60
2017-10-14T05:22:23.667Z,71.40
2017-10-14T05:24:50.024Z,71.40
2017-10-14T05:27:16.435Z,71.20
2017-10-14T05:29:43.153Z,70.40
2017-10-14T05:32:09.549Z,71.00
2017-10-14T05:34:36.735Z,71.20
2017-10-14T05:37:03.134Z,71.20
2017-10-14T05:39:30.259Z,70.90
2017-10-14T05:41:56.688Z,70.90
2017-10-14T05:44:24.581Z,69.50
2017-10-14T05:46:51.754Z,69.90
2017-10-14T05:49:18.888Z,70.00
2017-10-14T05:51:46.020Z,70.30
2017-10-14T05:54:13.916Z,70.80
2017-10-14T05:56:41.045Z,70.70
2017-10-14T05:59:07.420Z,70.60
2017-10-14T06:01:33.825Z,70.80
2017-10-14T06:04:00.988Z,70.90
2017-10-14T06:06:27.402Z,70.90
2017-10-14T06:08:54.555Z,70.70
2017-10-14T06:11:21.772Z,71.00
2017-10-14T06:13:49.653Z,71.50
2017-10-14T06:16:16.048Z,71.40
2017-10-14T06:18:42.505Z,71.50
2017-10-14T06:21:08.909Z,71.50
2017-10-14T06:23:35.296Z,71.70
2017-10-14T06:26:01.677Z,71.60
2017-10-14T06:28:28.092Z,71.10
2017-10-14T06:30:54.477Z,70.80
2017-10-14T06:33:21.160Z,70.90
2017-10-14T06:35:47.573Z,71.10
2017-10-14T06:38:14.034Z,71.00
2017-10-14T06:40:40.484Z,71.00
2017-10-14T06:43:06.886Z,71.30
2017-10-14T06:45:33.301Z,70.80
2017-10-14T06:48:00.464Z,71.30
2017-10-14T06:50:26.884Z,71.20
2017-10-14T06:52:54.048Z,71.70
2017-10-14T06:55:20.510Z,71.70
2017-10-14T06:57:46.961Z,71.20
2017-10-14T07:00:13.414Z,71.90
2017-10-14T07:02:39.817Z,71.60
2017-10-14T07:05:10.825Z,71.40
2017-10-14T07:07:37.283Z,71.70
2017-10-14T07:10:03.728Z,71.90
2017-10-14T07:12:30.157Z,72.00
2017-10-14T07:14:56.557Z,72.00
2017-10-14T07:17:22.969Z,71.70
2017-10-14T07:19:50.088Z,71.30
2017-10-14T07:22:16.483Z,71.10
2017-10-14T07:24:42.865Z,70.40
2017-10-14T07:27:09.242Z,69.70
2017-10-14T07:29:35.648Z,69.10
2017-10-14T07:32:02.828Z,67.80
2017-10-14T07:34:29.264Z,67.80
2017-10-14T07:36:55.697Z,67.80
2017-10-14T07:39:22.128Z,67.50
2017-10-14T07:41:48.598Z,67.50
2017-10-14T07:44:15.018Z,67.80
2017-10-14T07:46:41.436Z,67.30
2017-10-14T07:49:07.839Z,67.40
2017-10-14T07:51:34.267Z,67.50
2017-10-14T07:54:01.381Z,66.80
2017-10-14T07:56:27.802Z,66.80
2017-10-14T07:58:54.194Z,66.50
2017-10-14T08:01:20.635Z,66.90
2017-10-14T08:03:47.170Z,67.20
2017-10-14T08:06:13.621Z,67.00
2017-10-14T08:08:40.046Z,66.60
2017-10-14T08:11:06.484Z,66.40
2017-10-14T08:13:32.900Z,66.40
2017-10-14T08:15:59.289Z,66.90
2017-10-14T08:18:25.677Z,66.90
2017-10-14T08:20:52.069Z,67.60
2017-10-14T08:23:19.211Z,67.70
2017-10-14T08:25:45.604Z,67.70
2017-10-14T08:28:11.995Z,66.80
2017-10-14T08:30:39.157Z,66.30
2017-10-14T08:33:05.575Z,66.30
2017-10-14T08:35:32.728Z,67.40
2017-10-14T08:37:59.889Z,67.30
2017-10-14T08:40:26.301Z,67.30
2017-10-14T08:42:53.925Z,65.90
2017-10-14T08:45:20.418Z,66.00
2017-10-14T08:47:46.809Z,65.80
2017-10-14T08:50:13.217Z,66.00
2017-10-14T08:52:39.611Z,65.30
2017-10-14T08:55:06.036Z,64.80
2017-10-14T08:57:32.486Z,64.30
2017-10-14T08:59:58.907Z,64.60
2017-10-14T09:02:25.309Z,64.60
2017-10-14T09:04:51.704Z,63.60
2017-10-14T09:07:18.155Z,64.20
2017-10-14T09:09:44.564Z,63.50
2017-10-14T09:12:10.974Z,63.80
2017-10-14T09:14:37.379Z,63.50
2017-10-14T09:17:03.771Z,64.00
2017-10-14T09:19:30.227Z,64.20
2017-10-14T09:21:56.694Z,63.80
2017-10-14T09:24:23.860Z,64.10
2017-10-14T09:26:50.299Z,64.20
2017-10-14T09:29:16.775Z,62.80
2017-10-14T09:31:43.219Z,63.20
2017-10-14T09:34:09.669Z,62.00
2017-10-14T09:36:36.136Z,60.60
2017-10-14T09:39:02.671Z,61.70
2017-10-14T09:41:29.086Z,61.20
2017-10-14T09:43:56.225Z,60.00
2017-10-14T09:46:23.404Z,60.30
2017-10-14T09:48:49.813Z,60.30
2017-10-14T09:51:16.980Z,59.90
2017-10-14T09:53:43.404Z,59.90
2017-10-14T09:56:10.563Z,59.20
2017-10-14T09:58:36.947Z,59.20
2017-10-14T10:01:03.353Z,60.50
2017-10-14T10:03:29.761Z,58.70
2017-10-14T10:05:56.150Z,58.40
2017-10-14T10:08:24.033Z,58.30
2017-10-14T10:10:51.205Z,57.90
2017-10-14T10:13:17.597Z,57.90
2017-10-14T10:15:44.001Z,59.30
2017-10-14T10:18:10.439Z,59.70
2017-10-14T10:20:36.833Z,58.20
2017-10-14T10:23:03.241Z,57.50
2017-10-14T10:25:29.641Z,58.30
2017-10-14T10:27:56.029Z,57.70
2017-10-14T10:30:23.153Z,56.30
2017-10-14T10:32:50.385Z,55.80
2017-10-14T10:35:16.765Z,55.50
2017-10-14T10:37:43.165Z,55.50
2017-10-14T10:40:09.574Z,54.40
2017-10-14T10:42:35.985Z,54.20
2017-10-14T10:45:02.391Z,54.10
2017-10-14T10:47:29.538Z,52.80
2017-10-14T10:49:56.702Z,53.30
2017-10-14T10:52:23.119Z,53.30
2017-10-14T10:54:49.565Z,53.60
2017-10-14T10:57:15.962Z,54.40
2017-10-14T10:59:42.364Z,54.70
2017-10-14T11:02:08.785Z,53.70
2017-10-14T11:04:35.185Z,53.00
2017-10-14T11:07:01.603Z,52.40
2017-10-14T11:09:28.756Z,54.10
2017-10-14T11:11:55.947Z,53.90
2017-10-14T11:14:22.330Z,53.80
2017-10-14T11:16:49.489Z,53.40
2017-10-14T11:19:15.934Z,53.40
2017-10-14T11:21:43.089Z,54.50
2017-10-14T11:24:10.340Z,54.60
2017-10-14T11:26:37.460Z,54.50
2017-10-14T11:29:03.880Z,54.50
2017-10-14T11:31:30.293Z,55.70
2017-10-14T11:33:56.701Z,56.70
2017-10-14T11:36:23.074Z,55.20
2017-10-14T11:38:49.486Z,54.10
2017-10-14T11:41:15.920Z,54.60
2017-10-14T11:43:42.322Z,55.10
2017-10-14T11:46:08.751Z,55.60
2017-10-14T11:48:35.890Z,55.20
2017-10-14T11:51:03.041Z,55.90
2017-10-14T11:53:30.211Z,55.80
2017-10-14T11:55:56.652Z,55.80
2017-10-14T11:58:23.085Z,55.20
2017-10-14T12:00:49.504Z,55.30
2017-10-14T12:03:15.904Z,54.80
2017-10-14T12:05:42.332Z,54.50
2017-10-14T12:08:10.225Z,54.10
2017-10-14T12:10:37.368Z,53.40
2017-10-14T12:13:04.547Z,53.30
2017-10-14T12:15:30.972Z,53.40
2017-10-14T12:17:57.370Z,53.90
2017-10-14T12:20:23.766Z,54.60
2017-10-14T12:22:50.145Z,55.10
2017-10-14T12:25:17.327Z,54.30
2017-10-14T12:27:43.759Z,54.30
2017-10-14T12:30:10.193Z,54.50
2017-10-14T12:32:36.670Z,54.70
2017-10-14T12:35:03.145Z,54.50
2017-10-14T12:37:29.583Z,53.80
2017-10-14T12:39:55.981Z,54.20
2017-10-14T12:42:22.469Z,54.80
2017-10-14T12:44:48.890Z,54.20
2017-10-14T12:47:15.297Z,54.60
2017-10-14T12:49:41.699Z,54.40
2017-10-14T12:52:08.084Z,54.80
2017-10-14T12:54:34.507Z,54.20
2017-10-14T12:57:01.679Z,54.10
2017-10-14T12:59:28.110Z,54.00
2017-10-14T13:01:54.532Z,53.80
2017-10-14T13:04:21.693Z,53.90
2017-10-14T13:06:48.120Z,53.90
2017-10-14T13:09:14.495Z,53.40
2017-10-14T13:11:40.910Z,53.60
2017-10-14T13:14:07.309Z,54.40
2017-10-14T13:16:33.726Z,53.40
2017-10-14T13:19:00.902Z,54.10
2017-10-14T13:21:27.326Z,54.10
2017-10-14T13:23:53.724Z,53.00
2017-10-14T13:26:20.135Z,53.50
2017-10-14T13:28:46.536Z,53.90
2017-10-14T13:31:12.951Z,53.70
2017-10-14T13:33:40.087Z,54.60
2017-10-14T13:36:07.197Z,54.70
2017-10-14T13:38:33.636Z,54.70
2017-10-14T13:41:00.064Z,54.60
2017-10-14T13:43:26.456Z,55.60
2017-10-14T13:45:52.881Z,55.20
2017-10-14T13:48:20.032Z,55.00
2017-10-14T13:50:46.433Z,55.00
2017-10-14T13:53:12.872Z,53.80
2017-10-14T13:55:39.313Z,52.60
2017-10-14T13:58:06.485Z,53.00
2017-10-14T14:00:33.638Z,53.40
2017-10-14T14:03:00.052Z,53.40
2017-10-14T14:05:27.243Z,54.10
2017-10-14T14:07:53.660Z,54.10
2017-10-14T14:10:20.090Z,53.90
2017-10-14T14:12:46.497Z,53.60
2017-10-14T14:15:13.663Z,54.70
2017-10-14T14:17:40.861Z,53.80
2017-10-14T14:20:07.327Z,53.80
2017-10-14T14:22:34.471Z,52.60
2017-10-14T14:25:00.852Z,52.10
2017-10-14T14:27:27.281Z,53.00
2017-10-14T14:29:53.709Z,53.20
2017-10-14T14:32:20.144Z,53.60
2017-10-14T14:34:46.584Z,53.00
2017-10-14T14:37:13.001Z,53.40
2017-10-14T14:39:39.434Z,53.80
2017-10-14T14:42:05.852Z,53.20
2017-10-14T14:44:32.992Z,53.30
2017-10-14T14:46:59.392Z,53.30
2017-10-14T14:49:25.791Z,52.90
2017-10-14T14:51:52.218Z,52.90
2017-10-14T14:54:18.603Z,53.50
2017-10-14T14:56:45.013Z,52.90
2017-10-14T14:59:11.387Z,53.30
2017-10-14T15:01:37.846Z,52.80
2017-10-14T15:04:04.225Z,52.90
2017-10-14T15:06:30.684Z,53.20
2017-10-14T15:08:57.127Z,52.80
2017-10-14T15:11:23.690Z,53.70
2017-10-14T15:13:50.064Z,53.90
2017-10-14T15:16:16.450Z,53.70
2017-10-14T15:18:42.908Z,53.50
2017-10-14T15:21:09.327Z,53.50
2017-10-14T15:23:35.764Z,53.50
2017-10-14T15:26:02.197Z,53.80
2017-10-14T15:28:28.610Z,54.10
2017-10-14T15:30:55.015Z,54.10
2017-10-14T15:33:22.907Z,54.80
2017-10-14T15:35:49.363Z,54.80
2017-10-14T15:38:15.779Z,54.60
2017-10-14T15:40:42.178Z,54.40
2017-10-14T15:43:09.331Z,55.70
2017-10-14T15:45:35.762Z,55.10
2017-10-14T15:48:02.164Z,54.50
2017-10-14T15:50:28.557Z,54.90
2017-10-14T15:52:54.965Z,55.40
2017-10-14T15:55:21.362Z,55.00
2017-10-14T15:57:47.767Z,55.30
2017-10-14T16:00:14.758Z,55.40
2017-10-14T16:02:41.160Z,55.50
2017-10-14T16:05:07.563Z,55.50
2017-10-14T16:07:34.686Z,56.50
2017-10-14T16:10:01.081Z,56.50
2017-10-14T16:12:27.488Z,56.80
2017-10-14T16:14:53.898Z,57.00
2017-10-14T16:17:20.272Z,57.50
2017-10-14T16:19:46.673Z,57.70
2017-10-14T16:22:13.813Z,58.40
2017-10-14T16:24:40.960Z,58.80
2017-10-14T16:27:08.100Z,59.10
2017-10-14T16:29:35.289Z,59.60
2017-10-14T16:32:01.701Z,59.60
2017-10-14T16:34:28.952Z,60.00
2017-10-14T16:36:56.205Z,60.90
2017-10-14T16:39:23.375Z,61.30
2017-10-14T16:41:49.801Z,61.30
2017-10-14T16:44:17.036Z,61.50
2017-10-14T16:46:44.987Z,61.40
2017-10-14T16:49:11.424Z,61.40
2017-10-14T16:51:37.866Z,61.80
2017-10-14T16:54:04.269Z,62.20
2017-10-14T16:56:30.663Z,62.70
2017-10-14T16:58:57.076Z,62.70
2017-10-14T17:01:24.193Z,63.00
2017-10-14T17:03:50.568Z,63.00
2017-10-14T17:06:17.041Z,63.80
2017-10-14T17:08:43.435Z,63.90
2017-10-14T17:11:10.166Z,64.00
2017-10-14T17:13:37.337Z,63.90
2017-10-14T17:16:03.788Z,63.80
2017-10-14T17:18:30.174Z,64.10
2017-10-14T17:20:57.322Z,64.90
2017-10-14T17:23:25.184Z,64.40
2017-10-14T17:25:52.346Z,64.70
2017-10-14T17:28:19.494Z,64.80
2017-10-14T17:30:46.654Z,65.60
2017-10-14T17:33:13.087Z,65.60
2017-10-14T17:35:40.263Z,66.10
2017-10-14T17:38:07.457Z,66.10
2017-10-14T17:40:34.005Z,66.40
2017-10-14T17:43:01.149Z,66.50
2017-10-14T17:45:27.613Z,66.50
2017-10-14T17:47:54.001Z,66.70
2017-10-14T17:50:20.426Z,66.80
2017-10-14T17:52:46.824Z,67.20
2017-10-14T17:55:13.241Z,67.00
2017-10-14T17:57:39.655Z,66.40
2017-10-14T18:00:06.851Z,67.20
2017-10-14T18:02:33.275Z,67.20
2017-10-14T18:04:59.694Z,66.50
2017-10-14T18:07:26.137Z,66.70
2017-10-14T18:09:52.547Z,66.90
2017-10-14T18:12:19.723Z,67.50
2017-10-14T18:14:46.190Z,67.50
2017-10-14T18:17:12.641Z,68.00
2017-10-14T18:19:39.097Z,68.40
2017-10-14T18:22:06.281Z,68.60
2017-10-14T18:24:32.698Z,68.70
2017-10-14T18:26:59.130Z,68.30
2017-10-14T18:29:25.522Z,68.20
2017-10-14T18:31:51.913Z,67.90
2017-10-14T18:34:18.306Z,67.80
2017-10-14T18:36:45.457Z,67.60
2017-10-14T18:39:12.610Z,67.80
2017-10-14T18:41:39.780Z,68.40
2017-10-14T18:44:06.213Z,68.50
2017-10-14T18:46:32.639Z,68.20
2017-10-14T18:48:59.045Z,67.90
2017-10-14T18:51:26.280Z,69.30
2017-10-14T18:53:52.776Z,68.70
2017-10-14T18:56:19.220Z,68.50
2017-10-14T18:58:45.626Z,68.70
2017-10-14T19:01:12.017Z,68.90
2017-10-14T19:03:38.460Z,69.00
2017-10-14T19:06:04.879Z,68.40
2017-10-14T19:08:31.318Z,68.20
2017-10-14T19:10:57.717Z,69.00
2017-10-14T19:13:24.223Z,69.40
2017-10-14T19:15:50.658Z,69.50
2017-10-14T19:18:17.379Z,69.90
2017-10-14T19:20:44.509Z,69.90
2017-10-14T19:23:12.402Z,70.10
2017-10-14T19:25:39.573Z,70.30
2017-10-14T19:28:06.036Z,70.30
2017-10-14T19:30:32.459Z,70.10
2017-10-14T19:32:58.906Z,69.80
2017-10-14T19:35:25.320Z,70.10
2017-10-14T19:37:51.725Z,69.70
2017-10-14T19:40:18.126Z,69.10
2017-10-14T19:42:45.288Z,68.90
2017-10-14T19:45:12.429Z,69.00
2017-10-14T19:47:39.591Z,68.80
2017-10-14T19:50:05.999Z,68.80
2017-10-14T19:52:32.461Z,68.60
2017-10-14T19:54:59.676Z,68.70
2017-10-14T19:57:26.139Z,68.70
2017-10-14T19:59:53.292Z,69.80
2017-10-14T20:02:20.445Z,69.50
2017-10-14T20:04:47.604Z,70.80
2017-10-14T20:07:14.767Z,69.90
2017-10-14T20:09:41.163Z,69.90
2017-10-14T20:12:07.592Z,70.10
2017-10-14T20:14:33.990Z,69.40
2017-10-14T20:17:00.410Z,69.60
2017-10-14T20:19:27.888Z,69.70
2017-10-14T20:21:54.293Z,69.70
2017-10-14T20:24:20.708Z,69.30
2017-10-14T20:26:47.824Z,69.90
2017-10-14T20:29:15.739Z,69.70
2017-10-14T20:31:42.148Z,69.60
2017-10-14T20:34:09.350Z,69.20
2017-10-14T20:36:35.720Z,69.20
2017-10-14T20:39:02.960Z,70.00
2017-10-14T20:41:29.363Z,70.00
2017-10-14T20:43:55.776Z,69.90
2017-10-14T20:46:22.236Z,70.00
2017-10-14T20:48:48.631Z,69.60
2017-10-14T20:51:15.052Z,70.10
2017-10-14T20:53:42.250Z,70.00
2017-10-14T20:56:08.679Z,70.00
2017-10-14T20:58:35.220Z,70.00
2017-10-14T21:01:01.616Z,70.00
2017-10-14T21:03:28.057Z,69.70
2017-10-14T21:05:54.433Z,69.50
2017-10-14T21:08:20.829Z,69.50
2017-10-14T21:10:47.254Z,69.20
2017-10-14T21:13:13.681Z,69.30
2017-10-14T21:15:40.820Z,69.20
2017-10-14T21:18:07.208Z,69.10
2017-10-14T21:20:33.709Z,69.10
2017-10-14T21:23:00.193Z,69.20
2017-10-14T21:25:26.666Z,69.20
2017-10-14T21:27:53.073Z,69.60
2017-10-14T21:30:20.242Z,68.80
2017-10-14T21:32:46.716Z,68.80
2017-10-14T21:35:13.148Z,68.80
2017-10-14T21:37:39.548Z,68.40
2017-10-14T21:40:05.938Z,68.30
2017-10-14T21:42:32.337Z,68.80
2017-10-14T21:44:58.712Z,68.80
2017-10-14T21:47:25.101Z,68.70
2017-10-14T21:49:51.507Z,68.40
2017-10-14T21:52:17.931Z,68.40
2017-10-14T21:54:44.324Z,68.40
2017-10-14T21:57:10.716Z,68.70
2017-10-14T21:59:37.108Z,68.80
2017-10-14T22:02:04.320Z,68.00
2017-10-14T22:04:30.740Z,68.40
2017-10-14T22:06:57.124Z,68.30
2017-10-14T22:09:25.184Z,69.40
2017-10-14T22:11:52.401Z,69.80
2017-10-14T22:14:18.788Z,69.80
2017-10-14T22:16:45.906Z,69.60
2017-10-14T22:19:12.304Z,69.60
2017-10-14T22:21:38.737Z,70.10
2017-10-14T22:24:05.148Z,70.00
2017-10-14T22:26:31.512Z,70.00
2017-10-14T22:28:58.008Z,69.30
2017-10-14T22:31:24.424Z,69.10
2017-10-14T22:33:50.851Z,68.90
2017-10-14T22:36:17.992Z,70.00
2017-10-14T22:38:44.420Z,70.00
2017-10-14T22:41:10.866Z,70.20
2017-10-14T22:43:37.268Z,70.50
2017-10-14T22:46:03.669Z,69.30
2017-10-14T22:48:30.067Z,69.60
2017-10-14T22:50:57.235Z,70.20
2017-10-14T22:53:23.682Z,70.20
2017-10-14T22:55:50.073Z,69.80
2017-10-14T22:58:17.259Z,71.00
2017-10-14T23:00:43.698Z,71.00
2017-10-14T23:03:10.123Z,70.90
2017-10-14T23:05:36.652Z,69.60
2017-10-14T23:08:03.184Z,70.80
2017-10-14T23:10:29.588Z,69.50
2017-10-14T23:12:55.981Z,69.50
2017-10-14T23:15:22.370Z,69.40
2017-10-14T23:17:49.610Z,69.30
2017-10-14T23:20:16.754Z,69.60
2017-10-14T23:22:43.160Z,69.50
2017-10-14T23:25:09.564Z,69.30
2017-10-14T23:27:35.970Z,69.00
2017-10-14T23:30:03.165Z,69.80
2017-10-14T23:32:29.558Z,69.80
2017-10-14T23:34:56.679Z,71.60
2017-10-14T23:37:24.623Z,71.60
2017-10-14T23:39:51.021Z,71.60
2017-10-14T23:42:17.385Z,71.10
2017-10-14T23:44:43.812Z,71.20
2017-10-14T23:47:10.207Z,71.60
2017-10-14T23:49:36.615Z,71.20
2017-10-14T23:52:03.781Z,71.80
2017-10-14T23:54:30.958Z,71.10
2017-10-14T23:56:57.363Z,71.00
2017-10-14T23:59:24.497Z,71.70
